01:13 Rennrad Innsbruck ARZ - Radweg - Voels - Hatting - Pettnau - Moetz
Ort Innsbruck Datum 07.07.2016 17:15:14
Kategorie Rennrad
Distanz 40,15 Kilometer Steigung 164,0 Meter Gefälle -95,0 Meter
Gesamt Zeit 01:14:41 Aktiv 01:13:14 Pause 00:01:27
Durchs. Tempo 32,9 km/h Tempo max. 45,5 km/h Tempo min. 21,7 km/h
Kalorien 0 Durchs. HF 125 BPM HF max. 150 BPM
Wetter 27 °C PartClouds Min/Max: 26,5 °C/27,9 °C; Druck: 1014,8 mbar; Rel. Feuchte: 43,2%; Taupunkt: 13,5 °C; Windgeschwindigkeit: 10,0 km/h; Niederschlag: 0,0mm
Ausrüstung Bontrager - RXL Road
Continental - Grand Prix 4000 S II 25-622
Poison - Rennrad
Shimano - HG CN-7901 Dura Ace
Notiz Innsbruck ARZ - Radweg - Voels - Hatting - Pettnau - Moetz ... trocken, praktisch durchgehend Rückenwind, locker ... garmin connect
Splits
Distanz (km) Gesamt Zeit Split Zeit Split Tempo Split Tempo Höhenprofil (m)
1,00 00:02:12 00:02:12 00:02:12 27,2 -3,74
2,00 00:04:18 00:02:05 00:02:06 28,7 -3,73
3,00 00:06:15 00:01:57 00:01:57 30,6 2,15
4,00 00:08:04 00:01:49 00:01:49 33,0 1,87
5,00 00:09:53 00:01:48 00:01:49 33,1 3,59
6,00 00:11:59 00:02:06 00:02:06 28,5 10,55
7,00 00:13:43 00:01:43 00:01:43 34,8 -4,69
8,00 00:15:25 00:01:42 00:01:42 35,2 0,99
9,00 00:17:03 00:01:37 00:01:38 36,9 3,37
10,00 00:18:57 00:01:53 00:01:54 31,6 15,18
11,00 00:21:08 00:02:11 00:02:11 27,4 11,74
12,00 00:22:39 00:01:31 00:01:31 39,4 -17,01
13,00 00:24:11 00:01:31 00:01:32 39,3 -6,37
14,00 00:26:02 00:01:50 00:01:51 32,5 5,27
15,00 00:27:44 00:01:42 00:01:43 35,1 0,61
16,00 00:29:28 00:01:43 00:01:44 34,7 1,10
17,00 00:31:15 00:01:47 00:01:47 33,6 5,42
18,00 00:33:25 00:02:09 00:02:10 27,7 13,58
19,00 00:35:12 00:01:46 00:01:47 33,7 -7,73
20,00 00:36:46 00:01:34 00:01:35 38,0 -6,54
21,00 00:38:39 00:01:52 00:01:53 31,9 3,37
22,00 00:40:24 00:01:45 00:01:45 34,3 1,02
23,00 00:42:13 00:01:48 00:01:48 33,2 0,00
24,00 00:44:08 00:01:55 00:01:55 31,3 8,24
25,00 00:45:57 00:01:49 00:01:49 33,0 -3,32
26,00 00:47:53 00:01:56 00:01:56 30,9 3,41
27,00 00:49:45 00:01:51 00:01:51 32,4 1,10
28,00 00:51:32 00:01:47 00:01:48 33,5 -0,52
29,00 00:53:18 00:01:45 00:01:46 34,0 6,43
30,00 00:55:29 00:02:10 00:02:11 27,5 -1,77
31,00 00:57:11 00:01:42 00:01:43 35,0 0,50
32,00 00:58:51 00:01:39 00:01:39 36,3 2,60
33,00 01:00:30 00:01:39 00:01:39 36,3 7,31
34,00 01:02:15 00:01:45 00:01:45 34,2 1,28
35,00 01:03:55 00:01:40 00:01:40 36,0 1,68
36,00 01:05:37 00:01:42 00:01:43 35,1 -1,69
37,00 01:07:19 00:01:41 00:01:41 35,6 3,36
38,00 01:09:04 00:01:45 00:01:45 34,2 1,40
39,00 01:10:51 00:01:47 00:01:47 33,6 0,16
40,00 01:12:49 00:01:57 00:01:58 30,6 8,40
40,17 01:13:14 00:00:24 00:02:28 24,3 1,20